Wednesday, April 25, 2018, 5:04 AM GMT
Back to Local

CWEF, Saint Paul Island Meteorological Aeronautical Presentation System

Location: , , Canada Lat: 47.233
Local Time: 5:04 AM GMT ( 5:04 GMT) Lon: -60.133
Time Zone: GMT Elev: 85 ft

Show me the last for .
Show Coded

Time T Td Feel RH Dir Speed Gust Alt SLP Vis Weather Sky Remarks
2018-04-25 04:00 41 28 31 59 240° 23 - - 30.10 0 Peak wind: 25 mph (22 kts) from 240° at 55 min
2018-04-25 03:00 44 27 36 51 230° 17 - - 30.10 0 Peak wind: 20 mph (18 kts) from 240° at 26 min
2018-04-25 02:00 46 27 37 48 230° 17 24 - 30.11 0 Peak wind: 29 mph (26 kts) from 240° at 02 min
2018-04-25 01:00 47 27 39 44 230° 21 29 - 30.11 0 Peak wind: 28 mph (25 kts) from 230° at 58 min
2018-04-25 00:00 52 26 - 35 230° 20 - - 30.10 0 Peak wind: 21 mph (19 kts) from 240° at 58 min
2018-04-24 23:00 51 27 - 38 230° 18 - - 30.09 0 Peak wind: 20 mph (18 kts) from 230° at 30 min
2018-04-24 22:00 50 27 44 40 230° 16 - - 30.09 0 Peak wind: 26 mph (23 kts) from 240° at 10 min
2018-04-24 21:00 46 28 38 47 240° 23 - - 30.10 0 Peak wind: 26 mph (23 kts) from 240° at 57 min
2018-04-24 20:00 46 28 38 49 230° 20 - - 30.12 0 Peak wind: 23 mph (20 kts) from 230° at 38 min
2018-04-24 19:00 51 25 - 36 230° 17 23 - 30.13 0 Peak wind: 23 mph (20 kts) from 230° at 59 min
2018-04-24 18:00 44 28 36 54 230° 17 - - 30.14 0 Peak wind: 21 mph (19 kts) from 230° at 51 min
2018-04-24 17:00 41 29 32 61 250° 21 - - 30.16 0 Peak wind: 24 mph (21 kts) from 250° at 54 min
2018-04-24 16:00 41 29 33 61 240° 15 - - 30.18 0 Peak wind: 35 mph (31 kts) from 260° at 08 min
2018-04-24 15:00 42 26 32 52 250° 30 - - 30.18 0 Peak wind: 36 mph (32 kts) from 250° at 42 min
2018-04-24 14:00 41 27 32 57 230° 17 - - 30.21 0 Peak wind: 36 mph (32 kts) from 250° at 42 min
2018-04-24 13:00 41 27 33 56 230° 15 - - 30.22 0 None
2018-04-24 12:00 45 21 38 37 220° 14 - - 30.22 0 None
2018-04-24 11:00 46 18 39 33 220° 16 - - 30.24 0 None
2018-04-24 10:00 43 20 36 38 220° 15 - - 30.25 0 Peak wind: 19 mph (17 kts) from 210° at 16 min
2018-04-24 09:00 45 18 39 32 210° 13 - - 30.25 0 None
2018-04-24 08:00 46 15 40 27 210° 13 - - 30.26 0 None
2018-04-24 07:00 47 13 41 25 210° 12 - - 30.27 0 None
2018-04-24 06:00 44 14 39 29 220° 10 - - 30.28 0 None

Support USWX by starting your Amazon purchase here.